Time;durP1;ratioP1;P1;durP2;ratioP2;P2;SDS_P1;SDS_P2;PMS_P1;PMS_P2;Temp;Humidity;BMP_temperature;BMP_pressure;BME280_temperature;BME280_humidity;BME280_pressure;Samples;Min_cycle;Max_cycle;Signal;HPM_P1;HPM_P2
2023/03/12 00:02:10;;;;;;;1.80;1.70;;;;;;;3.42;60.13;100937.72;6175287;22;98322;-50
2023/03/12 00:04:35;;;;;;;2.30;2.10;;;;;;;3.40;60.35;100940.13;6173667;22;106367;-51
2023/03/12 00:07:05;;;;;;;1.80;1.70;;;;;;;3.38;60.25;100934.34;6174492;22;97030;-51
2023/03/12 00:09:33;;;;;;;4.60;1.60;;;;;;;3.35;60.17;100937.94;6174422;22;97225;-51
2023/03/12 00:11:58;;;;;;;3.40;1.77;;;;;;;3.35;60.30;100940.66;6174495;22;96783;-51
2023/03/12 00:14:23;;;;;;;7.53;1.60;;;;;;;3.32;60.45;100928.69;6174361;22;96879;-50
2023/03/12 00:16:48;;;;;;;2.30;1.10;;;;;;;3.32;60.16;100930.66;6174439;22;97101;-50
2023/03/12 00:19:14;;;;;;;3.67;1.10;;;;;;;3.30;60.12;100922.19;6173840;22;97094;-51
2023/03/12 00:21:39;;;;;;;1.30;1.20;;;;;;;3.29;60.29;100935.00;6174970;22;96770;-51
2023/03/12 00:24:06;;;;;;;1.57;1.00;;;;;;;3.27;60.32;100931.97;6173883;22;99673;-51
2023/03/12 00:26:31;;;;;;;1.80;1.43;;;;;;;3.28;60.25;100936.19;6174365;22;97304;-51
2023/03/12 00:28:57;;;;;;;1.87;1.60;;;;;;;3.29;60.23;100936.97;6174041;22;96731;-51
2023/03/12 00:31:26;;;;;;;6.23;1.40;;;;;;;3.28;60.20;100932.72;6174824;22;97271;-50
2023/03/12 00:33:52;;;;;;;0.97;0.87;;;;;;;3.27;60.05;100940.13;6173989;22;97298;-51
2023/03/12 00:36:22;;;;;;;1.40;1.07;;;;;;;3.25;59.97;100941.75;6174582;22;96812;-50
2023/03/12 00:38:48;;;;;;;1.20;1.10;;;;;;;3.25;60.20;100944.47;6174609;22;96779;-50
2023/03/12 00:41:13;;;;;;;2.73;1.07;;;;;;;3.23;60.31;100925.13;6174997;22;97034;-52
2023/03/12 00:43:38;;;;;;;1.40;1.10;;;;;;;3.23;60.26;100930.56;6173863;22;98367;-50
2023/03/12 00:46:04;;;;;;;1.50;1.40;;;;;;;3.24;60.19;100934.78;6174089;22;97184;-50
2023/03/12 00:48:29;;;;;;;1.53;1.17;;;;;;;3.24;60.21;100929.34;6173590;22;97596;-50
2023/03/12 00:50:54;;;;;;;1.80;1.23;;;;;;;3.22;60.10;100921.63;6174393;22;97084;-50
2023/03/12 00:53:20;;;;;;;2.77;1.13;;;;;;;3.20;60.23;100917.81;6174445;22;97210;-51
2023/03/12 00:55:45;;;;;;;0.90;0.90;;;;;;;3.18;60.17;100914.78;6170472;22;101635;-50
2023/03/12 00:58:10;;;;;;;1.20;0.90;;;;;;;3.13;60.17;100905.22;6171971;22;96840;-50
2023/03/12 01:00:36;;;;;;;1.30;1.10;;;;;;;3.13;60.15;100907.94;6175058;22;97251;-50
2023/03/12 01:03:01;;;;;;;1.73;1.50;;;;;;;3.12;60.17;100905.66;6173580;22;97124;-51
2023/03/12 01:05:26;;;;;;;2.10;1.27;;;;;;;3.10;59.87;100903.38;6173337;22;102637;-51
2023/03/12 01:07:52;;;;;;;1.93;1.13;;;;;;;3.09;60.03;100904.56;6172849;22;96999;-50
2023/03/12 01:10:19;;;;;;;1.70;1.20;;;;;;;3.04;60.07;100903.13;6173456;22;97187;-50
2023/03/12 01:12:44;;;;;;;1.13;1.00;;;;;;;3.02;60.15;100902.81;6170936;22;97158;-51
2023/03/12 01:15:13;;;;;;;1.43;1.33;;;;;;;3.02;60.15;100904.75;6172751;22;97077;-50
2023/03/12 01:17:38;;;;;;;2.33;1.50;;;;;;;3.01;60.27;100903.25;6173721;22;96909;-50
2023/03/12 01:20:04;;;;;;;1.13;1.00;;;;;;;2.99;59.99;100914.53;6173740;22;96766;-51
2023/03/12 01:22:30;;;;;;;3.37;0.90;;;;;;;2.95;59.95;100911.16;6173901;22;97376;-50
2023/03/12 01:24:56;;;;;;;1.23;1.13;;;;;;;2.93;59.79;100915.50;6174661;22;97088;-50
2023/03/12 01:27:21;;;;;;;3.20;2.13;;;;;;;2.91;60.02;100910.53;6174177;22;97063;-50
2023/03/12 01:29:46;;;;;;;3.90;1.70;;;;;;;2.88;59.98;100914.09;6173324;22;96857;-50
2023/03/12 01:32:12;;;;;;;6.43;2.03;;;;;;;2.84;60.16;100913.44;6173397;22;96743;-50
2023/03/12 01:34:37;;;;;;;2.80;1.80;;;;;;;2.83;60.45;100911.94;6173706;22;97040;-51
2023/03/12 01:37:03;;;;;;;2.83;1.83;;;;;;;2.83;60.27;100905.72;6173420;22;97398;-50
2023/03/12 01:39:28;;;;;;;2.50;1.90;;;;;;;2.83;60.44;100909.22;6173809;22;100525;-50
2023/03/12 01:41:53;;;;;;;1.80;1.70;;;;;;;2.81;60.38;100919.75;6173855;22;97208;-50
2023/03/12 01:44:19;;;;;;;2.20;1.80;;;;;;;2.79;60.58;100916.72;6174051;22;97037;-51
2023/03/12 01:46:47;;;;;;;3.37;2.30;;;;;;;2.78;60.51;100915.19;6174414;22;96562;-51
2023/03/12 01:49:15;;;;;;;5.50;2.00;;;;;;;2.77;60.50;100923.75;6174395;22;97141;-51
2023/03/12 01:51:46;;;;;;;9.60;1.80;;;;;;;2.77;60.49;100913.66;6173657;22;96914;-51
2023/03/12 01:54:19;;;;;;;1.60;1.50;;;;;;;2.78;60.27;100922.56;6173950;22;96846;-51
2023/03/12 01:56:46;;;;;;;1.53;1.33;;;;;;;2.74;60.40;100919.94;6173495;22;96817;-51
2023/03/12 01:59:21;;;;;;;2.67;1.50;;;;;;;2.73;60.34;100923.09;6173043;22;97636;-50
2023/03/12 02:01:47;;;;;;;2.93;1.20;;;;;;;2.73;60.48;100923.09;6173833;22;96863;-50
2023/03/12 02:04:15;;;;;;;1.83;1.60;;;;;;;2.69;60.43;100920.47;6173406;22;96893;-50
2023/03/12 02:07:07;;;;;;;2.53;1.80;;;;;;;2.68;60.45;100916.25;6174142;22;97037;-50
2023/03/12 02:09:37;;;;;;;1.43;1.27;;;;;;;2.68;60.60;100921.69;6158444;22;97039;-50
2023/03/12 02:12:03;;;;;;;1.13;1.00;;;;;;;2.66;60.49;100918.63;6173817;22;97449;-50
2023/03/12 02:14:29;;;;;;;1.80;1.40;;;;;;;2.66;60.43;100924.06;6174211;22;97044;-50
2023/03/12 02:16:55;;;;;;;3.60;1.33;;;;;;;2.64;60.48;100918.31;6173612;22;96894;-50
2023/03/12 02:19:47;;;;;;;1.27;1.17;;;;;;;2.63;60.58;100916.00;6173429;22;97089;-50
2023/03/12 02:22:14;;;;;;;1.93;1.10;;;;;;;2.59;60.35;100918.06;6173174;22;97275;-51
2023/03/12 02:24:48;;;;;;;1.37;1.27;;;;;;;2.54;60.51;100911.22;6174843;22;97078;-50
2023/03/12 02:27:16;;;;;;;5.30;1.50;;;;;;;2.49;60.45;100909.00;6175120;22;96918;-50
2023/03/12 02:29:44;;;;;;;2.33;1.20;;;;;;;2.48;60.37;100907.50;6174597;22;97167;-50
2023/03/12 02:32:16;;;;;;;1.23;1.10;;;;;;;2.46;60.46;100912.59;6174570;22;97222;-50
2023/03/12 02:34:42;;;;;;;0.80;0.80;;;;;;;2.44;60.43;100923.13;6174260;22;96867;-50
2023/03/12 02:37:07;;;;;;;1.57;1.17;;;;;;;2.43;60.62;100910.75;6174473;22;97097;-50
2023/03/12 02:39:32;;;;;;;2.90;1.23;;;;;;;2.41;60.66;100915.06;6175439;22;96560;-50
2023/03/12 02:41:59;;;;;;;3.00;1.07;;;;;;;2.40;60.37;100916.28;6174643;22;98705;-50
2023/03/12 02:44:28;;;;;;;1.57;1.07;;;;;;;2.38;60.73;100919.41;6174515;22;96669;-49
2023/03/12 02:46:55;;;;;;;2.10;0.90;;;;;;;2.38;60.69;100918.66;6173912;22;96960;-50
2023/03/12 02:49:23;;;;;;;1.20;1.00;;;;;;;2.35;60.74;100916.78;6174428;22;97339;-50
2023/03/12 02:51:49;;;;;;;1.43;1.13;;;;;;;2.31;60.58;100916.13;6174358;22;97124;-50
2023/03/12 02:54:16;;;;;;;4.10;1.40;;;;;;;2.31;60.74;100918.84;6174664;22;97110;-51
2023/03/12 02:56:42;;;;;;;2.23;1.40;;;;;;;2.32;60.76;100923.06;6175235;22;97080;-50
2023/03/12 02:59:08;;;;;;;1.00;1.00;;;;;;;2.34;60.72;100926.88;6173615;22;97136;-49
2023/03/12 03:01:34;;;;;;;1.20;1.10;;;;;;;2.34;60.64;100926.16;6174869;22;96921;-50
2023/03/12 03:04:01;;;;;;;1.23;1.00;;;;;;;2.30;60.45;100915.38;6174671;22;97374;-50
2023/03/12 03:06:26;;;;;;;2.20;1.60;;;;;;;2.26;60.67;100920.91;6174873;22;96867;-50
2023/03/12 03:08:52;;;;;;;2.20;1.43;;;;;;;2.22;60.44;100914.03;6174244;22;96807;-50
2023/03/12 03:11:18;;;;;;;1.17;0.77;;;;;;;2.15;60.46;100922.38;6173915;22;101451;-50
2023/03/12 03:13:43;;;;;;;2.73;1.43;;;;;;;2.10;60.67;100917.44;6174516;22;97089;-50
2023/03/12 03:16:11;;;;;;;1.20;1.10;;;;;;;2.06;60.61;100917.53;6174729;22;96705;-50
2023/03/12 03:18:36;;;;;;;2.30;1.40;;;;;;;2.03;60.51;100917.66;6174435;22;97071;-50
2023/03/12 03:21:07;;;;;;;1.30;1.20;;;;;;;1.99;60.44;100920.44;6173990;22;97105;-50
2023/03/12 03:23:33;;;;;;;1.17;1.00;;;;;;;1.95;60.71;100917.06;6174867;22;96963;-49
2023/03/12 03:25:58;;;;;;;3.13;1.23;;;;;;;1.92;60.84;100917.91;6174538;22;97103;-49
2023/03/12 03:28:26;;;;;;;3.20;1.10;;;;;;;1.91;60.67;100923.75;6174626;22;97179;-50
2023/03/12 03:30:53;;;;;;;1.13;1.07;;;;;;;1.91;60.95;100916.38;6174114;22;97458;-51
2023/03/12 03:33:19;;;;;;;2.77;1.30;;;;;;;1.92;60.92;100926.03;6174619;22;97056;-51
2023/03/12 03:35:46;;;;;;;1.60;0.80;;;;;;;1.93;60.92;100926.81;6173843;22;97140;-50
2023/03/12 03:38:11;;;;;;;2.30;1.63;;;;;;;1.94;60.46;100922.91;6173930;22;96986;-50
2023/03/12 03:40:37;;;;;;;4.73;1.50;;;;;;;1.92;60.55;100925.28;6174311;22;97262;-50
2023/03/12 03:43:02;;;;;;;2.87;1.17;;;;;;;1.90;60.45;100916.81;6174007;22;97491;-49
2023/03/12 03:45:27;;;;;;;2.43;1.20;;;;;;;1.88;60.71;100919.19;6174341;22;96875;-49
2023/03/12 03:47:53;;;;;;;2.93;1.30;;;;;;;1.87;60.95;100923.09;6174204;22;97671;-50
2023/03/12 03:50:18;;;;;;;1.40;1.33;;;;;;;1.87;60.75;100932.00;6174010;22;97739;-50
2023/03/12 03:52:44;;;;;;;1.30;1.20;;;;;;;1.88;60.77;100932.75;6147593;22;97276;-51
2023/03/12 03:55:09;;;;;;;4.00;1.50;;;;;;;1.84;60.67;100929.34;6174685;22;96913;-50
2023/03/12 03:57:34;;;;;;;1.43;1.33;;;;;;;1.83;60.70;100922.41;6174809;22;96935;-49
2023/03/12 04:00:00;;;;;;;5.93;1.00;;;;;;;1.78;60.94;100923.69;6172945;22;97765;-49
2023/03/12 04:02:26;;;;;;;2.20;1.20;;;;;;;1.79;61.02;100919.78;6174295;22;97011;-50
2023/03/12 04:04:56;;;;;;;1.20;1.03;;;;;;;1.82;60.95;100923.59;6174140;22;97077;-50
2023/03/12 04:07:21;;;;;;;1.03;1.03;;;;;;;1.82;61.04;100918.94;6173971;22;97036;-51
2023/03/12 04:09:46;;;;;;;2.40;1.20;;;;;;;1.82;60.61;100918.94;6173871;22;97247;-50
2023/03/12 04:12:11;;;;;;;2.07;1.67;;;;;;;1.83;60.70;100925.13;6173666;22;106709;-51
2023/03/12 04:14:41;;;;;;;1.83;0.83;;;;;;;1.83;60.72;100919.72;6174174;22;97259;-51
2023/03/12 04:17:07;;;;;;;1.20;1.10;;;;;;;1.83;60.73;100930.56;6174723;22;96704;-50
2023/03/12 04:19:33;;;;;;;1.87;1.10;;;;;;;1.77;60.53;100916.72;6174115;22;97228;-50
2023/03/12 04:21:58;;;;;;;1.60;0.93;;;;;;;1.74;60.95;100919.53;6174035;22;97650;-51
2023/03/12 04:24:23;;;;;;;3.20;1.40;;;;;;;1.71;60.87;100920.38;6173504;22;97433;-50
2023/03/12 04:26:50;;;;;;;2.60;1.17;;;;;;;1.69;60.93;100920.03;6169965;22;97842;-49
2023/03/12 04:29:15;;;;;;;1.57;1.47;;;;;;;1.68;60.87;100929.38;6172186;22;96759;-50
2023/03/12 04:31:41;;;;;;;1.67;1.40;;;;;;;1.67;61.02;100928.63;6173830;22;97150;-51
2023/03/12 04:34:06;;;;;;;1.43;1.20;;;;;;;1.65;60.93;100925.56;6147027;22;96764;-50
2023/03/12 04:36:31;;;;;;;1.73;1.20;;;;;;;1.66;61.03;100918.19;6174534;22;97279;-50
2023/03/12 04:38:57;;;;;;;2.00;1.30;;;;;;;1.68;61.20;100922.00;6173353;22;97168;-50
2023/03/12 04:41:22;;;;;;;2.30;1.40;;;;;;;1.69;61.23;100920.81;6174806;22;97114;-51
2023/03/12 04:43:48;;;;;;;3.07;1.17;;;;;;;1.69;60.89;100931.66;6174079;22;97516;-50
2023/03/12 04:46:14;;;;;;;1.30;1.20;;;;;;;1.72;61.10;100921.91;6173321;22;96857;-50
2023/03/12 04:48:39;;;;;;;2.10;1.37;;;;;;;1.70;60.92;100919.63;6172582;22;96908;-50
2023/03/12 04:51:05;;;;;;;2.27;1.17;;;;;;;1.71;60.83;100915.72;6173383;22;105060;-50
2023/03/12 04:53:31;;;;;;;1.17;1.13;;;;;;;1.71;61.20;100910.31;6174247;22;96743;-50
2023/03/12 04:55:56;;;;;;;2.27;1.00;;;;;;;1.73;61.05;100918.00;6174156;22;96787;-51
2023/03/12 04:58:22;;;;;;;1.90;1.43;;;;;;;1.70;60.73;100908.03;6149906;22;100128;-50
2023/03/12 05:00:48;;;;;;;1.77;1.10;;;;;;;1.70;60.87;100914.22;6173961;22;97599;-50
2023/03/12 05:03:15;;;;;;;2.80;1.50;;;;;;;1.71;61.08;100914.97;6173095;22;97027;-50
2023/03/12 05:05:40;;;;;;;1.63;1.27;;;;;;;1.71;61.18;100923.88;6174994;22;96943;-50
2023/03/12 05:08:05;;;;;;;2.23;1.30;;;;;;;1.71;61.09;100912.25;6173035;22;97019;-51
2023/03/12 05:10:31;;;;;;;2.30;1.27;;;;;;;1.70;61.25;100908.03;6173834;22;97767;-50
2023/03/12 05:12:57;;;;;;;1.60;1.50;;;;;;;1.69;61.32;100906.47;6173265;22;96554;-51
2023/03/12 05:15:22;;;;;;;7.47;1.90;;;;;;;1.70;61.12;100905.31;6173925;22;96702;-50
2023/03/12 05:17:47;;;;;;;1.90;1.13;;;;;;;1.70;61.37;100902.59;6173861;22;96825;-50
2023/03/12 05:20:13;;;;;;;2.60;1.60;;;;;;;1.71;61.58;100909.53;6173572;22;98311;-50
2023/03/12 05:22:39;;;;;;;1.70;1.60;;;;;;;1.74;61.56;100903.28;6174188;22;96862;-51
2023/03/12 05:25:05;;;;;;;1.50;1.40;;;;;;;1.75;61.70;100902.84;6174230;22;96959;-51
2023/03/12 05:27:31;;;;;;;1.73;1.47;;;;;;;1.76;61.32;100896.25;6173879;22;96735;-50
2023/03/12 05:29:57;;;;;;;1.50;1.40;;;;;;;1.79;61.55;100900.78;6173849;22;97138;-50
2023/03/12 05:32:22;;;;;;;2.53;1.57;;;;;;;1.80;61.18;100894.19;6173915;22;97220;-50
2023/03/12 05:34:47;;;;;;;2.20;1.40;;;;;;;1.80;61.48;100896.13;6173810;22;96828;-50
2023/03/12 05:37:13;;;;;;;1.27;1.17;;;;;;;1.80;61.21;100891.47;6172445;22;97216;-51
2023/03/12 05:39:39;;;;;;;5.80;1.10;;;;;;;1.82;61.54;100893.75;6173541;22;96940;-51
2023/03/12 05:42:05;;;;;;;2.03;1.70;;;;;;;1.84;61.58;100883.25;6170762;22;96974;-50
2023/03/12 05:44:31;;;;;;;1.53;1.40;;;;;;;1.87;61.60;100885.13;6173441;22;96675;-50
2023/03/12 05:46:56;;;;;;;2.73;1.30;;;;;;;1.87;61.63;100879.69;6172947;22;98894;-50
2023/03/12 05:49:21;;;;;;;1.67;1.20;;;;;;;1.88;61.48;100878.50;6172743;22;97737;-50
2023/03/12 05:51:48;;;;;;;1.67;1.40;;;;;;;1.91;61.38;100874.94;6174339;22;97031;-50
2023/03/12 05:54:15;;;;;;;1.33;1.20;;;;;;;1.91;61.20;100869.50;6174303;22;97078;-50
2023/03/12 05:56:40;;;;;;;3.20;1.67;;;;;;;1.92;61.31;100866.34;6173531;22;97770;-50
2023/03/12 05:59:05;;;;;;;1.97;1.50;;;;;;;1.94;61.50;100861.28;6171493;22;96569;-50
2023/03/12 06:01:31;;;;;;;1.77;1.23;;;;;;;1.98;61.53;100861.19;6173166;22;97042;-51
2023/03/12 06:03:57;;;;;;;1.70;1.53;;;;;;;1.99;61.61;100857.28;6172692;22;97059;-50
2023/03/12 06:06:22;;;;;;;2.00;1.33;;;;;;;2.03;61.51;100860.69;6172972;22;97203;-50
2023/03/12 06:08:50;;;;;;;2.30;1.30;;;;;;;2.05;61.42;100869.88;6146334;22;99995;-50
2023/03/12 06:11:15;;;;;;;2.90;1.27;;;;;;;2.07;61.62;100861.34;6173467;22;97123;-50
2023/03/12 06:13:41;;;;;;;1.50;1.40;;;;;;;2.12;61.32;100853.41;6172899;22;96856;-51
2023/03/12 06:16:14;;;;;;;1.60;1.47;;;;;;;2.14;61.54;100856.47;6172367;22;96584;-49
2023/03/12 06:18:40;;;;;;;1.80;1.70;;;;;;;2.18;61.50;100856.38;6173097;22;96938;-50
2023/03/12 06:21:18;;;;;;;2.93;1.63;;;;;;;2.25;61.56;100842.59;6146391;22;96984;-50
2023/03/12 06:23:44;;;;;;;2.83;2.03;;;;;;;2.26;61.43;100846.84;6173489;22;97288;-51
2023/03/12 06:26:10;;;;;;;2.27;1.40;;;;;;;2.30;61.54;100844.78;6144860;22;98643;-51
2023/03/12 06:28:36;;;;;;;1.10;1.10;;;;;;;2.34;61.69;100852.84;6172883;22;97285;-50
2023/03/12 06:31:02;;;;;;;1.90;1.30;;;;;;;2.39;61.67;100855.00;6173964;22;97117;-51
2023/03/12 06:33:28;;;;;;;1.40;1.30;;;;;;;2.41;61.60;100849.91;6173554;22;97149;-51
2023/03/12 06:35:56;;;;;;;1.37;1.27;;;;;;;2.45;61.60;100851.34;6172902;22;97352;-50
2023/03/12 06:38:22;;;;;;;1.70;1.60;;;;;;;2.49;61.51;100851.25;6172318;22;97161;-50
2023/03/12 06:41:09;;;;;;;6.13;1.77;;;;;;;2.56;61.49;100853.75;6172903;22;96546;-50
2023/03/12 06:43:36;;;;;;;1.27;1.17;;;;;;;2.55;61.41;100850.28;6170873;22;96941;-50
2023/03/12 06:46:03;;;;;;;1.40;1.30;;;;;;;2.58;61.46;100846.69;6172741;22;97361;-50
2023/03/12 06:48:32;;;;;;;2.87;1.60;;;;;;;2.62;61.45;100841.16;6172365;22;99296;-51
2023/03/12 06:50:58;;;;;;;2.03;1.30;;;;;;;2.67;61.61;100846.81;6173147;22;96945;-50
2023/03/12 06:53:24;;;;;;;2.17;1.40;;;;;;;2.72;61.53;100846.28;6173093;22;96850;-50
2023/03/12 06:55:50;;;;;;;1.87;1.33;;;;;;;2.80;61.41;100836.72;6171566;22;96683;-50
2023/03/12 06:58:16;;;;;;;1.60;1.50;;;;;;;2.93;61.55;100845.63;6171995;22;97028;-50
2023/03/12 07:00:41;;;;;;;2.70;1.60;;;;;;;3.09;61.67;100849.44;6173081;22;96921;-50
2023/03/12 07:03:07;;;;;;;2.07;1.40;;;;;;;3.21;61.47;100841.25;6172969;22;96773;-50
2023/03/12 07:05:32;;;;;;;1.23;1.13;;;;;;;3.29;61.40;100850.72;6173325;22;96933;-50
2023/03/12 07:07:58;;;;;;;1.70;1.13;;;;;;;3.35;61.44;100843.53;6172651;22;97818;-50
2023/03/12 07:10:23;;;;;;;1.40;1.30;;;;;;;3.40;61.45;100847.66;6173317;22;96979;-51
2023/03/12 07:12:49;;;;;;;1.47;1.10;;;;;;;3.46;61.45;100838.50;6175204;22;97017;-50
2023/03/12 07:15:15;;;;;;;1.50;1.40;;;;;;;3.53;61.21;100838.28;6173618;22;97450;-50
2023/03/12 07:17:40;;;;;;;1.20;1.20;;;;;;;3.59;61.11;100836.53;6173785;22;97023;-50
2023/03/12 07:20:06;;;;;;;4.77;1.33;;;;;;;3.60;61.17;100832.59;6174072;22;97262;-51
2023/03/12 07:22:31;;;;;;;1.93;1.77;;;;;;;3.64;61.29;100827.81;6175178;22;96564;-49
2023/03/12 07:24:57;;;;;;;1.60;1.50;;;;;;;3.68;60.96;100835.84;6173993;22;104756;-50
2023/03/12 07:27:22;;;;;;;1.83;1.73;;;;;;;3.68;61.04;100827.69;6173630;22;96931;-51
2023/03/12 07:29:48;;;;;;;3.80;1.53;;;;;;;3.70;61.11;100811.69;6174144;22;96936;-50
2023/03/12 07:32:13;;;;;;;2.43;2.23;;;;;;;3.80;61.39;100821.41;6174573;22;96723;-50
2023/03/12 07:34:39;;;;;;;2.47;1.93;;;;;;;3.92;61.14;100814.41;6174160;22;96997;-50
2023/03/12 07:37:04;;;;;;;1.40;1.30;;;;;;;3.98;61.03;100818.84;6174130;22;106697;-51
2023/03/12 07:39:30;;;;;;;1.70;1.50;;;;;;;4.06;60.94;100820.13;6173821;22;97178;-50
2023/03/12 07:41:55;;;;;;;1.37;1.27;;;;;;;4.14;60.74;100815.94;6174488;22;96793;-51
2023/03/12 07:44:21;;;;;;;1.43;1.33;;;;;;;4.22;60.85;100816.44;6173855;22;97921;-50
2023/03/12 07:46:46;;;;;;;1.67;1.57;;;;;;;4.28;61.01;100820.88;6174260;22;97403;-50
2023/03/12 07:49:11;;;;;;;2.63;1.67;;;;;;;4.38;60.97;100814.28;6173104;22;97268;-50
2023/03/12 07:51:37;;;;;;;2.50;1.70;;;;;;;4.49;60.81;100816.63;6173275;22;97095;-50
2023/03/12 07:54:02;;;;;;;1.40;1.20;;;;;;;4.54;60.75;100816.78;6147139;22;97910;-50
2023/03/12 07:56:27;;;;;;;1.50;1.40;;;;;;;4.63;60.76;100824.25;6174110;22;98187;-50
2023/03/12 07:58:53;;;;;;;2.20;1.53;;;;;;;4.72;60.93;100824.28;6173749;22;96592;-49
2023/03/12 08:01:18;;;;;;;1.50;1.40;;;;;;;4.81;60.57;100818.09;6174650;22;96907;-50
2023/03/12 08:03:44;;;;;;;2.37;1.60;;;;;;;4.88;60.54;100815.88;6173675;22;96945;-51
2023/03/12 08:06:09;;;;;;;1.80;1.70;;;;;;;4.94;60.29;100810.59;6174029;22;96919;-50
2023/03/12 08:08:37;;;;;;;1.97;1.60;;;;;;;5.01;60.28;100794.72;6174313;22;97186;-50
2023/03/12 08:11:03;;;;;;;1.77;1.67;;;;;;;5.13;60.39;100804.00;6174715;22;97035;-51
2023/03/12 08:13:29;;;;;;;1.43;1.10;;;;;;;5.27;60.33;100789.78;6174004;22;96648;-49
2023/03/12 08:15:55;;;;;;;2.63;1.43;;;;;;;5.39;60.29;100796.31;6174084;22;97000;-50
2023/03/12 08:18:21;;;;;;;3.40;1.80;;;;;;;5.48;60.10;100796.34;6174089;22;96946;-50
2023/03/12 08:20:50;;;;;;;1.50;1.40;;;;;;;5.54;59.98;100794.50;6147911;22;97106;-50
2023/03/12 08:23:15;;;;;;;4.27;2.00;;;;;;;5.62;59.69;100793.75;6174129;22;98039;-49
2023/03/12 08:25:44;;;;;;;4.73;1.40;;;;;;;5.71;59.95;100788.31;6174372;22;96912;-51
2023/03/12 08:28:09;;;;;;;3.30;1.83;;;;;;;5.77;59.48;100791.16;6173263;22;96699;-51
2023/03/12 08:30:34;;;;;;;1.63;1.53;;;;;;;5.79;59.34;100794.19;6174004;22;97188;-49
2023/03/12 08:33:00;;;;;;;1.37;1.27;;;;;;;5.78;59.37;100785.28;6173877;22;106550;-50
2023/03/12 08:35:25;;;;;;;3.00;1.40;;;;;;;5.79;59.35;100794.97;6173710;22;98408;-49
2023/03/12 08:37:51;;;;;;;1.50;1.40;;;;;;;5.79;59.44;100800.44;6174099;22;97202;-50
2023/03/12 08:40:17;;;;;;;3.80;1.60;;;;;;;5.81;59.22;100798.00;6146685;22;97830;-52
2023/03/12 08:42:43;;;;;;;2.10;1.30;;;;;;;5.88;59.62;100797.72;6174038;22;97000;-50
2023/03/12 08:45:10;;;;;;;2.57;1.90;;;;;;;5.94;59.53;100803.34;6174575;22;97628;-50
2023/03/12 08:47:38;;;;;;;2.80;1.57;;;;;;;5.99;59.41;100798.03;6174449;22;97058;-49
2023/03/12 08:50:04;;;;;;;7.00;1.50;;;;;;;6.08;59.37;100797.25;6173291;22;96740;-49
2023/03/12 08:52:30;;;;;;;1.60;1.50;;;;;;;6.19;59.06;100796.78;6173297;22;96641;-50
2023/03/12 08:54:55;;;;;;;1.37;1.27;;;;;;;6.27;59.15;100798.00;6174140;22;97084;-51
2023/03/12 08:57:20;;;;;;;3.77;1.70;;;;;;;6.32;58.96;100795.38;6174047;22;97391;-51
2023/03/12 08:59:46;;;;;;;1.60;1.37;;;;;;;6.37;58.76;100800.25;6174384;22;97671;-50
2023/03/12 09:02:11;;;;;;;4.53;1.60;;;;;;;6.46;58.99;100799.47;6172080;22;96651;-52
2023/03/12 09:04:37;;;;;;;4.83;1.63;;;;;;;6.53;58.75;100799.88;6173506;22;110301;-51
2023/03/12 09:07:03;;;;;;;4.07;1.80;;;;;;;6.59;58.86;100791.81;6174210;22;96792;-50
2023/03/12 09:09:28;;;;;;;6.83;1.50;;;;;;;6.74;58.98;100790.69;6173696;22;96629;-50
2023/03/12 09:11:54;;;;;;;2.80;1.43;;;;;;;6.89;58.45;100776.34;6173984;22;98329;-50
2023/03/12 09:14:19;;;;;;;1.80;1.20;;;;;;;7.02;58.44;100785.09;6173609;22;97021;-50
2023/03/12 09:16:45;;;;;;;8.53;1.97;;;;;;;7.14;58.38;100770.44;6173358;22;96577;-50
2023/03/12 09:19:10;;;;;;;5.90;1.67;;;;;;;7.23;57.78;100776.59;6174128;22;96773;-50
2023/03/12 09:21:35;;;;;;;3.40;1.50;;;;;;;7.32;57.59;100775.78;6173766;22;97163;-51
2023/03/12 09:24:01;;;;;;;4.77;1.70;;;;;;;7.36;57.87;100777.13;6173966;22;107424;-51
2023/03/12 09:26:26;;;;;;;2.97;1.80;;;;;;;7.39;57.34;100783.66;6174137;22;96834;-50
2023/03/12 09:28:52;;;;;;;3.87;1.57;;;;;;;7.38;57.54;100782.88;6171263;22;97024;-51
2023/03/12 09:31:17;;;;;;;3.70;1.37;;;;;;;7.42;57.36;100778.00;6173104;22;103496;-51
2023/03/12 09:33:43;;;;;;;5.53;1.60;;;;;;;7.44;57.37;100766.59;6174089;22;98028;-50
2023/03/12 09:36:08;;;;;;;5.90;1.87;;;;;;;7.47;57.35;100762.91;6174367;22;96589;-51
2023/03/12 09:38:36;;;;;;;2.10;1.43;;;;;;;7.57;57.51;100765.13;6173289;22;96867;-50
2023/03/12 09:41:04;;;;;;;2.93;1.67;;;;;;;7.66;57.12;100766.25;6173383;22;97279;-50
2023/03/12 09:43:44;;;;;;;6.73;2.10;;;;;;;7.77;56.18;100755.53;6173418;22;97073;-50
2023/03/12 09:46:21;;;;;;;4.47;1.60;;;;;;;7.84;56.15;100755.16;6174104;22;96989;-50
2023/03/12 09:48:49;;;;;;;2.40;1.50;;;;;;;7.88;56.94;100744.78;6173866;22;97498;-50
2023/03/12 09:51:27;;;;;;;2.93;1.37;;;;;;;7.92;56.49;100740.63;6173718;22;97201;-51
2023/03/12 09:53:57;;;;;;;3.53;1.30;;;;;;;7.96;56.58;100741.19;6174452;22;97536;-50
2023/03/12 09:56:25;;;;;;;4.20;1.77;;;;;;;8.00;56.94;100732.75;6173840;22;97161;-50
2023/03/12 09:58:53;;;;;;;1.70;1.43;;;;;;;8.03;56.38;100729.84;6173661;22;97256;-50
2023/03/12 10:01:40;;;;;;;4.63;1.87;;;;;;;8.05;55.12;100727.41;6173603;22;96868;-50
2023/03/12 10:04:10;;;;;;;1.60;1.30;;;;;;;8.10;56.28;100725.97;6173594;22;97157;-50
2023/03/12 10:06:58;;;;;;;2.77;1.27;;;;;;;8.21;54.71;100724.16;6173160;22;97233;-50
2023/03/12 10:10:00;;;;;;;1.77;1.10;;;;;;;8.21;54.83;100710.47;6173150;22;96840;-50
2023/03/12 10:12:25;;;;;;;2.37;1.43;;;;;;;8.21;56.31;100701.50;6173519;22;96579;-50
2023/03/12 10:15:06;;;;;;;3.17;1.70;;;;;;;8.25;55.75;100697.38;6173732;22;97137;-50
2023/03/12 10:18:04;;;;;;;1.70;1.27;;;;;;;8.34;53.44;100687.53;6173747;22;97213;-50
2023/03/12 10:20:40;;;;;;;2.30;1.60;;;;;;;8.37;55.00;100679.09;6173978;22;97243;-50
2023/03/12 10:23:37;;;;;;;2.57;1.27;;;;;;;8.42;53.92;100680.41;6173759;22;97047;-50
2023/03/12 10:26:09;;;;;;;3.17;1.27;;;;;;;8.48;55.77;100673.00;6172152;22;97277;-51
2023/03/12 10:28:41;;;;;;;1.73;1.13;;;;;;;8.59;55.71;100671.19;6172895;22;97173;-50
2023/03/12 10:31:17;;;;;;;2.20;1.10;;;;;;;8.68;55.16;100651.88;6173868;22;96756;-50
2023/03/12 10:33:50;;;;;;;3.67;1.67;;;;;;;8.69;55.21;100647.88;6173239;22;97191;-50
2023/03/12 10:36:19;;;;;;;2.90;1.33;;;;;;;8.73;55.41;100642.22;6173853;22;97599;-49
2023/03/12 10:38:47;;;;;;;1.90;1.43;;;;;;;8.79;55.24;100632.06;6173686;22;97048;-50
2023/03/12 10:41:32;;;;;;;5.07;1.53;;;;;;;8.83;52.94;100624.38;6173206;22;97051;-50
2023/03/12 10:44:02;;;;;;;1.17;1.10;;;;;;;8.82;55.03;100623.59;6173887;22;96897;-49
2023/03/12 10:47:01;;;;;;;4.33;1.37;;;;;;;8.82;52.45;100620.88;6175260;22;97435;-50
2023/03/12 10:49:30;;;;;;;3.80;1.47;;;;;;;8.82;55.30;100628.34;6174739;22;97233;-50
2023/03/12 10:52:00;;;;;;;1.83;1.27;;;;;;;8.85;54.86;100616.41;6175923;22;96851;-50
2023/03/12 10:54:35;;;;;;;1.87;1.00;;;;;;;8.86;54.31;100618.69;6174812;22;97012;-50
2023/03/12 10:57:01;;;;;;;2.00;1.00;;;;;;;8.84;55.05;100617.66;6173407;22;97337;-50
2023/03/12 10:59:29;;;;;;;3.93;1.20;;;;;;;8.89;55.33;100620.47;6173529;22;96816;-50
2023/03/12 11:01:55;;;;;;;1.63;1.10;;;;;;;8.89;54.94;100625.19;6174964;22;96735;-50
2023/03/12 11:04:23;;;;;;;1.27;1.17;;;;;;;8.87;54.51;100631.16;6173642;22;97313;-50
2023/03/12 11:07:02;;;;;;;3.30;0.90;;;;;;;8.86;53.91;100615.94;6173554;22;98283;-50
2023/03/12 11:09:28;;;;;;;4.30;1.20;;;;;;;8.86;54.76;100615.19;6174328;22;96946;-50
2023/03/12 11:11:53;;;;;;;1.67;1.27;;;;;;;8.90;55.09;100613.75;6175830;22;97093;-50
2023/03/12 11:14:24;;;;;;;2.13;0.87;;;;;;;8.93;54.69;100612.75;6175330;22;96861;-50
2023/03/12 11:16:51;;;;;;;2.50;0.97;;;;;;;8.98;54.87;100609.34;6175274;22;97148;-50
2023/03/12 11:19:31;;;;;;;2.90;1.60;;;;;;;8.99;53.58;100613.59;6174751;22;96558;-50
2023/03/12 11:22:10;;;;;;;2.30;1.20;;;;;;;9.03;54.34;100605.91;6174530;22;96713;-50
2023/03/12 11:24:54;;;;;;;0.90;0.70;;;;;;;9.03;52.93;100581.22;6173623;22;97387;-50
2023/03/12 11:27:33;;;;;;;1.33;0.87;;;;;;;9.05;54.04;100577.97;6174618;22;97042;-50
2023/03/12 11:30:01;;;;;;;1.10;1.00;;;;;;;9.11;54.91;100581.53;6174041;22;96598;-50
2023/03/12 11:32:34;;;;;;;1.63;1.00;;;;;;;9.18;54.61;100583.09;6174665;22;96913;-50
2023/03/12 11:35:01;;;;;;;1.30;0.90;;;;;;;9.21;54.36;100577.41;6175016;22;97270;-50
2023/03/12 11:37:45;;;;;;;2.27;0.97;;;;;;;9.21;52.39;100579.38;6174471;22;96753;-50